Time;durP1;ratioP1;P1;durP2;ratioP2;P2;SDS_P1;SDS_P2;PMS_P1;PMS_P2;Temp;Humidity;BMP_temperature;BMP_pressure;BME280_temperature;BME280_humidity;BME280_pressure;Samples;Min_cycle;Max_cycle;Signal;HPM_P1;HPM_P2
2020/12/21 00:01:52;;;;;;;122.05;41.97;;;;;;;;;;4970399;28;20042;-74
2020/12/21 00:04:19;;;;;;;104.18;40.75;;;;;;;;;;4970416;28;20078;-75
2020/12/21 00:06:50;;;;;;;95.70;36.55;;;;;;;;;;4966277;28;20046;-75
2020/12/21 00:09:16;;;;;;;82.68;35.80;;;;;;;;;;4965804;28;20059;-75
2020/12/21 00:11:42;;;;;;;111.40;38.92;;;;;;;;;;4968150;28;20049;-75
2020/12/21 00:14:08;;;;;;;115.05;38.05;;;;;;;;;;4965830;28;20514;-75
2020/12/21 00:16:39;;;;;;;98.43;37.60;;;;;;;;;;4970784;28;20051;-75
2020/12/21 00:19:06;;;;;;;113.60;40.92;;;;;;;;;;4968957;28;20134;-75
2020/12/21 00:21:33;;;;;;;98.32;39.38;;;;;;;;;;4973761;28;20038;-75
2020/12/21 00:24:00;;;;;;;113.70;39.90;;;;;;;;;;4960179;28;20051;-75
2020/12/21 00:26:26;;;;;;;112.22;39.45;;;;;;;;;;4963850;28;20046;-75
2020/12/21 00:28:52;;;;;;;97.70;38.65;;;;;;;;;;4970285;28;20047;-75
2020/12/21 00:31:29;;;;;;;109.55;40.38;;;;;;;;;;4964644;28;20036;-75
2020/12/21 00:33:56;;;;;;;92.18;36.85;;;;;;;;;;4969420;28;20141;-75
2020/12/21 00:36:22;;;;;;;84.70;34.72;;;;;;;;;;4963742;28;20039;-75
2020/12/21 00:38:49;;;;;;;76.57;33.00;;;;;;;;;;4973062;28;20081;-75
2020/12/21 00:41:16;;;;;;;83.80;35.50;;;;;;;;;;4969852;28;20473;-75
2020/12/21 00:43:45;;;;;;;83.38;34.83;;;;;;;;;;4971076;28;20043;-75
2020/12/21 00:46:18;;;;;;;79.15;34.63;;;;;;;;;;4967364;28;20458;-74
2020/12/21 00:48:44;;;;;;;95.20;36.85;;;;;;;;;;4963505;28;20093;-75
2020/12/21 00:51:11;;;;;;;91.05;38.13;;;;;;;;;;4966466;28;20031;-75
2020/12/21 00:53:38;;;;;;;105.70;39.10;;;;;;;;;;4940454;28;20054;-75
2020/12/21 00:56:05;;;;;;;95.40;39.07;;;;;;;;;;4961774;28;20109;-75
2020/12/21 00:58:32;;;;;;;109.57;39.10;;;;;;;;;;4968576;28;20601;-75
2020/12/21 01:01:03;;;;;;;103.30;41.83;;;;;;;;;;4960982;28;20036;-75
2020/12/21 01:03:29;;;;;;;118.15;43.05;;;;;;;;;;4965038;28;20137;-75
2020/12/21 01:05:56;;;;;;;114.07;42.42;;;;;;;;;;4967671;28;20510;-75
2020/12/21 01:08:22;;;;;;;93.20;40.85;;;;;;;;;;4961550;28;20051;-75
2020/12/21 01:10:48;;;;;;;106.97;41.70;;;;;;;;;;4963140;28;20074;-75
2020/12/21 01:13:15;;;;;;;99.05;40.80;;;;;;;;;;4963570;28;20035;-75
2020/12/21 01:15:42;;;;;;;104.85;41.10;;;;;;;;;;4972396;28;20049;-75
2020/12/21 01:18:08;;;;;;;105.85;44.03;;;;;;;;;;4964249;28;20047;-75
2020/12/21 01:20:34;;;;;;;104.32;42.30;;;;;;;;;;4967447;28;20047;-75
2020/12/21 01:23:01;;;;;;;102.25;41.85;;;;;;;;;;4966074;28;20042;-75
2020/12/21 01:25:28;;;;;;;108.07;43.15;;;;;;;;;;4961963;28;20099;-75
2020/12/21 01:27:54;;;;;;;107.70;42.58;;;;;;;;;;4969301;28;20046;-75
2020/12/21 01:30:20;;;;;;;108.13;41.83;;;;;;;;;;4961078;28;20619;-75
2020/12/21 01:32:46;;;;;;;120.63;44.28;;;;;;;;;;4958383;28;20055;-74
2020/12/21 01:35:13;;;;;;;107.05;42.75;;;;;;;;;;4967095;28;20050;-75
2020/12/21 01:37:39;;;;;;;112.78;42.45;;;;;;;;;;4965199;28;20039;-74
2020/12/21 01:40:06;;;;;;;105.05;41.75;;;;;;;;;;4966737;28;20101;-75
2020/12/21 01:42:33;;;;;;;123.22;40.85;;;;;;;;;;4961395;28;20043;-75
2020/12/21 01:44:59;;;;;;;105.73;42.23;;;;;;;;;;4959145;28;20047;-75
2020/12/21 01:47:26;;;;;;;102.40;41.15;;;;;;;;;;4958738;28;20861;-75
2020/12/21 01:49:52;;;;;;;104.75;43.33;;;;;;;;;;4959352;28;20051;-75
2020/12/21 01:52:19;;;;;;;94.55;39.42;;;;;;;;;;4966130;28;20121;-75
2020/12/21 01:54:48;;;;;;;94.63;39.47;;;;;;;;;;4966697;28;20229;-75
2020/12/21 01:57:15;;;;;;;102.70;40.40;;;;;;;;;;4965938;28;20090;-74
2020/12/21 01:59:41;;;;;;;110.13;40.75;;;;;;;;;;4962583;28;20043;-74
2020/12/21 02:02:08;;;;;;;115.32;41.28;;;;;;;;;;4962755;28;20042;-75
2020/12/21 02:04:35;;;;;;;107.43;39.42;;;;;;;;;;4963548;28;20046;-75
2020/12/21 02:07:01;;;;;;;104.18;39.40;;;;;;;;;;4964876;28;20054;-75
2020/12/21 02:09:31;;;;;;;102.70;37.30;;;;;;;;;;4964500;28;20463;-74
2020/12/21 02:11:58;;;;;;;91.78;37.22;;;;;;;;;;4965492;28;20042;-75
2020/12/21 02:14:24;;;;;;;90.32;36.17;;;;;;;;;;4959034;28;20095;-75
2020/12/21 02:16:50;;;;;;;101.78;38.05;;;;;;;;;;4966240;28;20450;-75
2020/12/21 02:19:18;;;;;;;104.55;37.95;;;;;;;;;;4964714;28;20058;-75
2020/12/21 02:21:45;;;;;;;95.85;36.15;;;;;;;;;;4960363;28;20035;-75
2020/12/21 02:24:11;;;;;;;103.40;36.67;;;;;;;;;;4963075;28;20046;-76
2020/12/21 02:26:37;;;;;;;94.60;36.92;;;;;;;;;;4965591;28;20565;-76
2020/12/21 02:29:03;;;;;;;78.22;35.25;;;;;;;;;;4965761;28;20043;-75
2020/12/21 02:31:29;;;;;;;79.93;33.22;;;;;;;;;;4968503;28;20047;-75
2020/12/21 02:33:56;;;;;;;82.00;34.97;;;;;;;;;;4963556;28;20051;-75
2020/12/21 02:36:22;;;;;;;95.32;36.10;;;;;;;;;;4960257;28;20546;-75
2020/12/21 02:38:49;;;;;;;81.55;32.83;;;;;;;;;;4957601;28;20051;-75
2020/12/21 02:41:16;;;;;;;83.28;33.30;;;;;;;;;;4963611;28;20058;-75
2020/12/21 02:43:43;;;;;;;91.03;34.28;;;;;;;;;;4968212;28;20047;-75
2020/12/21 02:46:10;;;;;;;83.60;34.03;;;;;;;;;;4969163;28;20067;-75
2020/12/21 02:48:36;;;;;;;92.70;32.58;;;;;;;;;;4964022;28;20055;-75
2020/12/21 02:51:03;;;;;;;87.50;34.08;;;;;;;;;;4962568;28;20043;-75
2020/12/21 02:53:30;;;;;;;87.90;34.15;;;;;;;;;;4965140;28;20529;-75
2020/12/21 02:55:56;;;;;;;80.68;32.00;;;;;;;;;;4965782;28;20046;-75
2020/12/21 02:58:22;;;;;;;82.00;33.30;;;;;;;;;;4964364;28;20043;-75
2020/12/21 03:00:49;;;;;;;89.00;33.37;;;;;;;;;;4965823;28;20102;-75
2020/12/21 03:03:15;;;;;;;93.28;31.77;;;;;;;;;;4963556;28;20050;-75
2020/12/21 03:05:41;;;;;;;100.45;34.25;;;;;;;;;;4961592;28;20102;-75
2020/12/21 03:08:08;;;;;;;89.32;34.38;;;;;;;;;;4960972;28;20086;-75
2020/12/21 03:10:35;;;;;;;97.65;33.90;;;;;;;;;;4959974;28;20138;-75
2020/12/21 03:13:01;;;;;;;88.13;33.63;;;;;;;;;;4966019;28;20411;-75
2020/12/21 03:15:28;;;;;;;84.53;32.13;;;;;;;;;;4958271;28;20070;-75
2020/12/21 03:17:54;;;;;;;89.25;33.28;;;;;;;;;;4971430;28;20090;-75
2020/12/21 03:20:20;;;;;;;85.13;32.25;;;;;;;;;;4970746;28;20061;-75
2020/12/21 03:22:49;;;;;;;95.05;35.05;;;;;;;;;;4967166;28;20130;-75
2020/12/21 03:25:16;;;;;;;78.07;33.03;;;;;;;;;;4970543;28;20043;-75
2020/12/21 03:27:43;;;;;;;95.53;32.22;;;;;;;;;;4966529;28;20100;-75
2020/12/21 03:30:10;;;;;;;90.43;32.70;;;;;;;;;;4969931;28;20034;-74
2020/12/21 03:32:36;;;;;;;72.82;31.17;;;;;;;;;;4966484;28;20047;-75
2020/12/21 03:35:04;;;;;;;84.10;32.15;;;;;;;;;;4968053;28;20043;-75
2020/12/21 03:37:33;;;;;;;87.20;32.50;;;;;;;;;;4963721;28;20073;-74
2020/12/21 03:40:03;;;;;;;88.22;32.97;;;;;;;;;;4970479;28;20042;-75
2020/12/21 03:42:29;;;;;;;100.00;35.63;;;;;;;;;;4946658;29;20079;-75
2020/12/21 03:44:56;;;;;;;98.63;35.17;;;;;;;;;;4958915;28;20043;-75
2020/12/21 03:47:22;;;;;;;97.95;33.75;;;;;;;;;;4961743;28;20034;-75
2020/12/21 03:49:48;;;;;;;101.97;35.00;;;;;;;;;;4969360;28;20055;-75
2020/12/21 03:52:15;;;;;;;104.30;35.40;;;;;;;;;;4961396;28;20106;-75
2020/12/21 03:54:41;;;;;;;111.50;35.03;;;;;;;;;;4961052;28;20118;-75
2020/12/21 03:57:07;;;;;;;83.95;32.83;;;;;;;;;;4965666;28;20047;-75
2020/12/21 03:59:33;;;;;;;97.43;32.80;;;;;;;;;;4963146;28;20043;-75
2020/12/21 04:01:59;;;;;;;99.72;34.85;;;;;;;;;;4961574;28;20103;-75
2020/12/21 04:04:26;;;;;;;112.97;35.05;;;;;;;;;;4965338;28;20054;-75
2020/12/21 04:06:53;;;;;;;103.95;34.47;;;;;;;;;;4960923;28;20110;-75
2020/12/21 04:09:19;;;;;;;92.72;34.92;;;;;;;;;;4966457;28;20054;-75
2020/12/21 04:11:45;;;;;;;104.57;33.90;;;;;;;;;;4969066;28;20039;-75
2020/12/21 04:14:12;;;;;;;101.32;36.97;;;;;;;;;;4947471;28;20039;-75
2020/12/21 04:16:38;;;;;;;113.30;34.80;;;;;;;;;;4969621;28;20070;-75
2020/12/21 04:19:04;;;;;;;108.65;37.55;;;;;;;;;;4970326;28;20117;-75
2020/12/21 04:21:30;;;;;;;120.25;38.75;;;;;;;;;;4970828;28;20046;-75
2020/12/21 04:23:57;;;;;;;121.18;37.78;;;;;;;;;;4970365;28;20046;-75
2020/12/21 04:26:23;;;;;;;96.80;35.70;;;;;;;;;;4967665;28;20055;-74
2020/12/21 04:28:49;;;;;;;121.97;39.50;;;;;;;;;;4969691;28;20046;-75
2020/12/21 04:31:16;;;;;;;100.70;38.88;;;;;;;;;;4966024;28;20653;-75
2020/12/21 04:33:43;;;;;;;118.38;38.78;;;;;;;;;;4967665;28;20089;-75
2020/12/21 04:36:09;;;;;;;115.15;39.33;;;;;;;;;;4967150;28;20070;-74
2020/12/21 04:38:39;;;;;;;103.05;39.45;;;;;;;;;;4970487;28;20047;-74
2020/12/21 04:41:06;;;;;;;110.43;38.30;;;;;;;;;;4970192;28;20169;-75
2020/12/21 04:43:33;;;;;;;109.75;39.45;;;;;;;;;;4968634;28;20521;-75
2020/12/21 04:46:04;;;;;;;110.70;38.47;;;;;;;;;;4971138;28;20042;-74
2020/12/21 04:48:32;;;;;;;113.43;38.78;;;;;;;;;;4967398;28;20054;-74
2020/12/21 04:50:59;;;;;;;131.77;39.05;;;;;;;;;;4967282;28;20138;-74
2020/12/21 04:53:25;;;;;;;115.55;40.08;;;;;;;;;;4966484;28;20034;-74
2020/12/21 04:55:51;;;;;;;111.88;39.13;;;;;;;;;;4970058;28;20042;-74
2020/12/21 04:58:18;;;;;;;99.47;37.03;;;;;;;;;;4970713;28;20031;-74
2020/12/21 05:00:44;;;;;;;102.03;38.80;;;;;;;;;;4970014;28;20047;-74
2020/12/21 05:03:10;;;;;;;109.45;38.75;;;;;;;;;;4970433;28;20093;-74
2020/12/21 05:05:42;;;;;;;105.07;39.10;;;;;;;;;;4969602;28;20051;-75
2020/12/21 05:08:10;;;;;;;102.22;38.33;;;;;;;;;;4968039;28;20035;-74
2020/12/21 05:10:37;;;;;;;126.10;39.33;;;;;;;;;;4968174;28;20100;-74
2020/12/21 05:13:04;;;;;;;;;;;;;;;;;;4962579;28;20070;-74
2020/12/21 05:15:30;;;;;;;90.82;35.05;;;;;;;;;;4964584;28;19928;-74
2020/12/21 05:18:07;;;;;;;103.95;38.00;;;;;;;;;;4965178;28;20058;-74
2020/12/21 05:20:40;;;;;;;87.28;34.17;;;;;;;;;;4964656;28;20055;-74
2020/12/21 05:23:14;;;;;;;91.85;34.53;;;;;;;;;;4944047;28;20062;-74
2020/12/21 05:25:41;;;;;;;107.95;36.63;;;;;;;;;;4961148;28;20040;-74
2020/12/21 05:28:12;;;;;;;88.05;35.28;;;;;;;;;;4964309;28;20035;-74
2020/12/21 05:30:54;;;;;;;114.60;37.95;;;;;;;;;;4967364;28;20046;-74
2020/12/21 05:33:21;;;;;;;102.15;33.97;;;;;;;;;;4964013;28;20050;-74
2020/12/21 05:35:47;;;;;;;98.97;35.03;;;;;;;;;;4962706;28;20050;-74
2020/12/21 05:38:20;;;;;;;94.50;34.92;;;;;;;;;;4963929;28;20063;-74
2020/12/21 05:40:47;;;;;;;86.00;33.25;;;;;;;;;;4968358;28;20117;-74
2020/12/21 05:43:23;;;;;;;104.15;34.40;;;;;;;;;;4963441;28;20125;-74
2020/12/21 05:46:00;;;;;;;101.57;34.45;;;;;;;;;;4966914;28;20046;-74
2020/12/21 05:48:27;;;;;;;;;;;;;;;;;;4968037;28;20049;-74
2020/12/21 05:50:54;;;;;;;101.75;34.85;;;;;;;;;;4961003;28;19930;-74
2020/12/21 05:53:20;;;;;;;93.78;32.90;;;;;;;;;;4962813;28;20070;-74
2020/12/21 05:55:47;;;;;;;100.63;34.25;;;;;;;;;;4967871;28;20047;-74
2020/12/21 05:58:13;;;;;;;108.90;36.17;;;;;;;;;;4966830;28;20514;-74
2020/12/21 06:00:40;;;;;;;97.28;34.30;;;;;;;;;;4967228;28;20049;-74
2020/12/21 06:03:07;;;;;;;102.82;33.97;;;;;;;;;;4963708;28;20061;-74
2020/12/21 06:05:36;;;;;;;93.60;34.88;;;;;;;;;;4969505;28;20043;-74
2020/12/21 06:08:05;;;;;;;84.55;31.88;;;;;;;;;;4963751;28;20039;-74
2020/12/21 06:10:36;;;;;;;86.85;34.15;;;;;;;;;;4963112;28;20055;-74
2020/12/21 06:13:04;;;;;;;104.88;33.45;;;;;;;;;;4962132;28;20403;-74
2020/12/21 06:15:30;;;;;;;84.70;31.70;;;;;;;;;;4966100;28;20045;-74
2020/12/21 06:17:56;;;;;;;88.28;32.65;;;;;;;;;;4960879;28;20059;-74
2020/12/21 06:20:23;;;;;;;101.68;33.10;;;;;;;;;;4964535;28;20083;-74
2020/12/21 06:22:49;;;;;;;90.28;31.00;;;;;;;;;;4959761;28;20042;-74
2020/12/21 06:25:22;;;;;;;90.20;30.98;;;;;;;;;;4940323;28;20043;-74
2020/12/21 06:27:50;;;;;;;82.50;31.30;;;;;;;;;;4967590;28;20151;-74
2020/12/21 06:30:16;;;;;;;79.88;29.17;;;;;;;;;;4962528;28;20054;-74
2020/12/21 06:32:45;;;;;;;91.18;31.20;;;;;;;;;;4967446;28;20414;-74
2020/12/21 06:35:11;;;;;;;;;;;;;;;;;;4966083;28;20070;-74
2020/12/21 06:37:37;;;;;;;71.07;28.58;;;;;;;;;;4966207;28;19976;-74
2020/12/21 06:40:05;;;;;;;83.80;30.17;;;;;;;;;;4963329;28;20078;-74
2020/12/21 06:42:31;;;;;;;83.13;29.45;;;;;;;;;;4965870;28;20039;-74
2020/12/21 06:44:58;;;;;;;72.93;27.77;;;;;;;;;;4967067;28;20110;-74
2020/12/21 06:47:25;;;;;;;77.82;29.92;;;;;;;;;;4970410;28;20040;-74
2020/12/21 06:49:52;;;;;;;75.63;28.92;;;;;;;;;;4971653;28;20039;-74
2020/12/21 06:52:19;;;;;;;72.00;29.05;;;;;;;;;;4967167;28;20031;-74
2020/12/21 06:54:45;;;;;;;87.45;29.33;;;;;;;;;;4967597;28;20064;-74
2020/12/21 06:57:12;;;;;;;91.65;31.77;;;;;;;;;;4967293;28;20495;-74
2020/12/21 06:59:38;;;;;;;98.90;30.77;;;;;;;;;;4967238;28;20573;-74
2020/12/21 07:02:05;;;;;;;76.33;30.20;;;;;;;;;;4969599;28;20457;-74
2020/12/21 07:04:35;;;;;;;81.15;29.80;;;;;;;;;;4967551;28;20373;-74
2020/12/21 07:07:02;;;;;;;79.95;29.75;;;;;;;;;;4967357;28;20069;-74
2020/12/21 07:09:30;;;;;;;80.45;28.80;;;;;;;;;;4966503;28;20059;-74
2020/12/21 07:11:58;;;;;;;71.75;28.63;;;;;;;;;;4964161;28;20043;-74
2020/12/21 07:14:25;;;;;;;83.13;29.48;;;;;;;;;;4968665;28;20054;-74
2020/12/21 07:17:04;;;;;;;76.38;30.13;;;;;;;;;;4969999;28;20501;-74
2020/12/21 07:19:34;;;;;;;85.68;29.85;;;;;;;;;;4963866;28;20039;-74
2020/12/21 07:22:04;;;;;;;72.60;27.77;;;;;;;;;;4966676;28;20035;-74
2020/12/21 07:24:34;;;;;;;77.43;28.75;;;;;;;;;;4966378;28;20047;-75
2020/12/21 07:27:00;;;;;;;73.95;27.88;;;;;;;;;;4966188;28;20058;-74
2020/12/21 07:29:39;;;;;;;86.63;28.42;;;;;;;;;;4967054;28;20055;-74
2020/12/21 07:32:06;;;;;;;66.85;27.40;;;;;;;;;;4968168;28;20081;-73
2020/12/21 07:34:32;;;;;;;66.75;26.33;;;;;;;;;;4963690;28;20561;-73
2020/12/21 07:36:58;;;;;;;71.70;25.52;;;;;;;;;;4966335;28;20790;-74
2020/12/21 07:39:25;;;;;;;65.40;25.53;;;;;;;;;;4970748;28;20039;-74
2020/12/21 07:41:52;;;;;;;64.38;25.60;;;;;;;;;;4968713;28;20887;-74
2020/12/21 07:44:27;;;;;;;68.15;24.50;;;;;;;;;;4940839;28;20098;-75
2020/12/21 07:47:15;;;;;;;69.85;25.50;;;;;;;;;;4966520;28;20067;-74
2020/12/21 07:49:42;;;;;;;61.97;24.15;;;;;;;;;;4967623;28;20556;-74
2020/12/21 07:52:09;;;;;;;59.40;23.17;;;;;;;;;;4963068;28;20065;-74
2020/12/21 07:54:40;;;;;;;69.60;25.25;;;;;;;;;;4966611;28;20533;-74
2020/12/21 07:57:07;;;;;;;66.75;24.52;;;;;;;;;;4968598;28;20039;-73
2020/12/21 07:59:33;;;;;;;72.10;24.88;;;;;;;;;;4967167;28;20061;-74
2020/12/21 08:02:00;;;;;;;73.80;23.13;;;;;;;;;;4962809;28;20050;-74
2020/12/21 08:04:28;;;;;;;64.72;22.00;;;;;;;;;;4966885;28;20163;-75
2020/12/21 08:07:03;;;;;;;60.40;21.42;;;;;;;;;;4964072;28;20126;-75
2020/12/21 08:09:29;;;;;;;59.72;21.52;;;;;;;;;;4961779;28;20067;-75
2020/12/21 08:11:57;;;;;;;59.40;22.13;;;;;;;;;;4955924;28;20559;-75
2020/12/21 08:14:23;;;;;;;64.28;22.23;;;;;;;;;;4952919;28;20043;-75
2020/12/21 08:16:50;;;;;;;61.90;22.88;;;;;;;;;;4960253;28;20386;-75
2020/12/21 08:19:22;;;;;;;54.88;20.80;;;;;;;;;;4947683;28;20043;-75
2020/12/21 08:21:49;;;;;;;61.15;21.67;;;;;;;;;;4956870;28;20086;-74
2020/12/21 08:24:15;;;;;;;53.17;20.20;;;;;;;;;;4949042;28;20066;-74
2020/12/21 08:26:42;;;;;;;49.20;19.65;;;;;;;;;;4955310;28;20051;-75
2020/12/21 08:29:17;;;;;;;57.38;20.17;;;;;;;;;;4950497;28;20043;-74
2020/12/21 08:31:44;;;;;;;53.90;20.35;;;;;;;;;;4947517;28;20047;-74
2020/12/21 08:34:13;;;;;;;55.22;20.83;;;;;;;;;;4951870;28;20038;-75
2020/12/21 08:36:41;;;;;;;56.30;20.23;;;;;;;;;;4949846;28;20048;-74
2020/12/21 08:39:08;;;;;;;49.47;20.27;;;;;;;;;;4948224;28;20043;-74
2020/12/21 08:41:34;;;;;;;65.80;20.70;;;;;;;;;;4951234;28;20393;-74
2020/12/21 08:44:01;;;;;;;47.40;21.00;;;;;;;;;;4951554;28;20126;-74
2020/12/21 08:46:28;;;;;;;;;;;;;;;;;;4925268;29;20054;-74
2020/12/21 08:48:54;;;;;;;58.60;20.27;;;;;;;;;;4953289;28;19927;-74
2020/12/21 08:51:21;;;;;;;56.15;20.50;;;;;;;;;;4952460;28;20048;-74
2020/12/21 08:53:57;;;;;;;63.70;20.55;;;;;;;;;;4955041;28;20043;-74
2020/12/21 08:56:24;;;;;;;66.05;21.85;;;;;;;;;;4953927;28;20364;-74
2020/12/21 08:58:50;;;;;;;59.75;21.23;;;;;;;;;;4955228;28;20042;-74
2020/12/21 09:01:16;;;;;;;62.67;21.92;;;;;;;;;;4954039;28;20046;-74
2020/12/21 09:03:44;;;;;;;63.72;20.38;;;;;;;;;;4956809;28;20402;-74
2020/12/21 09:06:14;;;;;;;64.20;20.35;;;;;;;;;;4955406;28;20122;-75
2020/12/21 09:08:54;;;;;;;52.92;20.42;;;;;;;;;;4939048;28;20098;-75
2020/12/21 09:11:20;;;;;;;55.45;19.73;;;;;;;;;;4960194;28;20074;-75
2020/12/21 09:13:47;;;;;;;47.03;18.98;;;;;;;;;;4963239;28;20106;-75
2020/12/21 09:16:20;;;;;;;38.10;16.63;;;;;;;;;;4965563;28;20479;-75
2020/12/21 09:18:47;;;;;;;48.50;17.20;;;;;;;;;;4966434;28;20054;-75
2020/12/21 09:21:17;;;;;;;47.42;16.75;;;;;;;;;;4964165;28;20058;-74
2020/12/21 09:23:44;;;;;;;44.05;16.85;;;;;;;;;;4964667;28;20050;-75
2020/12/21 09:26:10;;;;;;;41.72;17.17;;;;;;;;;;4965843;28;20039;-75
2020/12/21 09:28:36;;;;;;;50.78;18.90;;;;;;;;;;4961270;28;20051;-75
2020/12/21 09:31:04;;;;;;;49.20;18.38;;;;;;;;;;4964868;28;20047;-74
2020/12/21 09:33:30;;;;;;;52.30;18.00;;;;;;;;;;4969440;28;20042;-74
2020/12/21 09:35:57;;;;;;;49.42;18.88;;;;;;;;;;4964736;28;20050;-75
2020/12/21 09:38:23;;;;;;;56.80;19.17;;;;;;;;;;4963561;28;20098;-74
2020/12/21 09:40:49;;;;;;;48.65;20.40;;;;;;;;;;4962110;28;20310;-74
2020/12/21 09:43:15;;;;;;;49.30;18.80;;;;;;;;;;4967617;28;20036;-74
2020/12/21 09:45:42;;;;;;;48.05;16.88;;;;;;;;;;4942956;28;20058;-75
2020/12/21 09:48:08;;;;;;;50.38;18.40;;;;;;;;;;4966323;28;20043;-75
2020/12/21 09:50:34;;;;;;;47.88;17.63;;;;;;;;;;4968324;28;20141;-74
2020/12/21 09:53:00;;;;;;;52.47;17.52;;;;;;;;;;4964281;28;20438;-74
2020/12/21 09:55:26;;;;;;;48.00;17.13;;;;;;;;;;4961790;28;20047;-74
2020/12/21 09:57:55;;;;;;;46.45;15.43;;;;;;;;;;4967455;28;20049;-74
2020/12/21 10:00:21;;;;;;;42.92;15.48;;;;;;;;;;4963285;28;20046;-75
2020/12/21 10:02:47;;;;;;;50.03;17.02;;;;;;;;;;4965970;28;20042;-75
2020/12/21 10:05:13;;;;;;;47.38;15.85;;;;;;;;;;4962754;28;20090;-74
2020/12/21 10:07:42;;;;;;;41.05;15.57;;;;;;;;;;4966281;28;20061;-75
2020/12/21 10:10:08;;;;;;;40.92;15.45;;;;;;;;;;4928478;29;20051;-74
2020/12/21 10:12:34;;;;;;;49.85;15.15;;;;;;;;;;4938142;29;20035;-74
2020/12/21 10:15:00;;;;;;;40.35;13.98;;;;;;;;;;4942395;28;20049;-74
2020/12/21 10:17:28;;;;;;;27.20;11.93;;;;;;;;;;4939024;29;20043;-74
2020/12/21 10:19:54;;;;;;;27.83;11.20;;;;;;;;;;4942053;29;21641;-74
2020/12/21 10:22:20;;;;;;;26.45;9.60;;;;;;;;;;4940451;29;20107;-74
2020/12/21 10:24:47;;;;;;;28.13;9.32;;;;;;;;;;4949169;29;20061;-75
2020/12/21 10:27:13;;;;;;;19.73;8.73;;;;;;;;;;4944100;28;20043;-75
2020/12/21 10:29:39;;;;;;;19.23;8.10;;;;;;;;;;4948050;28;20051;-73
2020/12/21 10:32:06;;;;;;;29.30;9.45;;;;;;;;;;4937692;29;20067;-74
2020/12/21 10:34:32;;;;;;;23.73;8.90;;;;;;;;;;4943486;29;20048;-74
2020/12/21 10:36:58;;;;;;;27.17;8.65;;;;;;;;;;4944283;29;20058;-73
2020/12/21 10:39:24;;;;;;;23.27;8.10;;;;;;;;;;4955622;28;20131;-73
2020/12/21 10:41:51;;;;;;;20.13;8.32;;;;;;;;;;4946610;29;20066;-74
2020/12/21 10:44:17;;;;;;;27.25;8.50;;;;;;;;;;4944651;29;20110;-73
2020/12/21 10:46:43;;;;;;;21.45;7.55;;;;;;;;;;4948829;29;20107;-74
2020/12/21 10:49:10;;;;;;;16.80;6.43;;;;;;;;;;4945976;29;20035;-75
2020/12/21 10:51:36;;;;;;;24.88;8.18;;;;;;;;;;4946264;29;20499;-74
2020/12/21 10:54:03;;;;;;;21.83;8.18;;;;;;;;;;4943956;28;20415;-74
2020/12/21 10:56:29;;;;;;;21.20;7.28;;;;;;;;;;4939746;28;20054;-74
2020/12/21 10:58:56;;;;;;;19.77;6.47;;;;;;;;;;4946465;28;20055;-74
2020/12/21 11:01:22;;;;;;;17.85;6.63;;;;;;;;;;4943318;29;20067;-74
2020/12/21 11:03:49;;;;;;;17.83;7.03;;;;;;;;;;4941104;29;20395;-73
2020/12/21 11:06:18;;;;;;;17.25;6.95;;;;;;;;;;4945768;29;20045;-73
2020/12/21 11:08:45;;;;;;;11.82;6.18;;;;;;;;;;4951943;28;20517;-73
2020/12/21 11:11:11;;;;;;;14.30;5.93;;;;;;;;;;4972357;28;20134;-74
2020/12/21 11:13:41;;;;;;;17.40;6.07;;;;;;;;;;4969036;28;20077;-74
2020/12/21 11:16:08;;;;;;;16.83;5.03;;;;;;;;;;4969383;28;20093;-74
2020/12/21 11:18:35;;;;;;;21.13;4.97;;;;;;;;;;4969145;28;20043;-74
2020/12/21 11:21:02;;;;;;;14.40;4.82;;;;;;;;;;4964855;28;20054;-74
2020/12/21 11:23:28;;;;;;;15.38;5.00;;;;;;;;;;4967718;28;20039;-74
2020/12/21 11:25:54;;;;;;;14.50;5.32;;;;;;;;;;4968777;28;20758;-74
2020/12/21 11:28:20;;;;;;;11.50;4.65;;;;;;;;;;4967287;28;20157;-74
2020/12/21 11:30:47;;;;;;;14.02;5.07;;;;;;;;;;4962646;28;20443;-74
2020/12/21 11:33:14;;;;;;;15.02;4.93;;;;;;;;;;4966506;28;20038;-74
2020/12/21 11:35:41;;;;;;;19.95;5.05;;;;;;;;;;4965021;28;20047;-74
2020/12/21 11:38:07;;;;;;;14.48;4.70;;;;;;;;;;4964287;28;20034;-73
2020/12/21 11:40:34;;;;;;;13.88;4.75;;;;;;;;;;4969307;28;20043;-74
2020/12/21 11:43:00;;;;;;;20.57;4.57;;;;;;;;;;4970983;28;20061;-74
2020/12/21 11:45:28;;;;;;;16.48;4.72;;;;;;;;;;4967389;28;20059;-73
2020/12/21 11:47:54;;;;;;;17.17;4.65;;;;;;;;;;4964632;28;20050;-74
2020/12/21 11:50:20;;;;;;;18.65;5.38;;;;;;;;;;4967625;28;20058;-74
2020/12/21 11:52:47;;;;;;;22.73;4.97;;;;;;;;;;4964964;28;20074;-74
2020/12/21 11:55:13;;;;;;;24.00;4.78;;;;;;;;;;4948394;28;20524;-74
2020/12/21 11:57:39;;;;;;;23.73;5.05;;;;;;;;;;4962850;28;20036;-74
2020/12/21 12:00:05;;;;;;;16.98;4.70;;;;;;;;;;4968135;28;20043;-74
2020/12/21 12:02:31;;;;;;;19.30;4.25;;;;;;;;;;4967678;28;20054;-74
2020/12/21 12:04:57;;;;;;;17.95;4.75;;;;;;;;;;4971352;28;20125;-73
2020/12/21 12:07:30;;;;;;;20.88;5.47;;;;;;;;;;4963938;28;20042;-74
2020/12/21 12:09:56;;;;;;;23.10;4.67;;;;;;;;;;4970338;28;20109;-74
2020/12/21 12:12:23;;;;;;;19.17;4.78;;;;;;;;;;4972719;28;20071;-73
2020/12/21 12:14:49;;;;;;;25.88;5.00;;;;;;;;;;4969813;28;20035;-74
2020/12/21 12:17:17;;;;;;;34.15;4.70;;;;;;;;;;4969567;28;20046;-74
2020/12/21 12:19:43;;;;;;;21.67;5.03;;;;;;;;;;4963790;28;20047;-73
2020/12/21 12:22:10;;;;;;;21.48;5.03;;;;;;;;;;4967489;28;20065;-73
2020/12/21 12:24:37;;;;;;;31.90;5.43;;;;;;;;;;4955753;28;20047;-73
2020/12/21 12:27:03;;;;;;;26.52;5.30;;;;;;;;;;4965771;28;20341;-73
2020/12/21 12:29:30;;;;;;;23.13;4.70;;;;;;;;;;4966129;28;20055;-73
2020/12/21 12:31:56;;;;;;;26.83;5.07;;;;;;;;;;4965795;28;20090;-73
2020/12/21 12:34:22;;;;;;;18.98;4.32;;;;;;;;;;4969796;28;20312;-73
2020/12/21 12:36:48;;;;;;;21.35;4.28;;;;;;;;;;4967581;28;20107;-73
2020/12/21 12:39:15;;;;;;;27.15;4.35;;;;;;;;;;4967155;28;20036;-73
2020/12/21 12:41:42;;;;;;;25.60;3.95;;;;;;;;;;4964045;28;20071;-73
2020/12/21 12:44:08;;;;;;;23.77;4.47;;;;;;;;;;4968687;28;20038;-73
2020/12/21 12:46:35;;;;;;;21.73;4.47;;;;;;;;;;4965148;28;20078;-73
2020/12/21 12:49:02;;;;;;;16.42;4.18;;;;;;;;;;4966012;28;20050;-72
2020/12/21 12:51:29;;;;;;;20.52;4.00;;;;;;;;;;4964100;28;20123;-72
2020/12/21 12:53:55;;;;;;;30.20;4.43;;;;;;;;;;4967819;28;20067;-73
2020/12/21 12:56:21;;;;;;;29.65;4.80;;;;;;;;;;4965990;28;20522;-72
2020/12/21 12:58:48;;;;;;;26.92;4.68;;;;;;;;;;4967539;28;20125;-72
2020/12/21 13:01:15;;;;;;;20.65;4.63;;;;;;;;;;4960364;28;20039;-73
2020/12/21 13:03:41;;;;;;;33.83;4.83;;;;;;;;;;4962105;28;20117;-74
2020/12/21 13:06:08;;;;;;;27.38;4.28;;;;;;;;;;4965935;28;20586;-74
2020/12/21 13:08:35;;;;;;;24.58;4.40;;;;;;;;;;4961778;28;20035;-74
2020/12/21 13:11:19;;;;;;;37.25;4.57;;;;;;;;;;4970285;28;20055;-74
2020/12/21 13:13:45;;;;;;;33.17;4.80;;;;;;;;;;4968403;28;20047;-74
2020/12/21 13:16:12;;;;;;;25.85;4.15;;;;;;;;;;4966601;28;20047;-74
2020/12/21 13:18:38;;;;;;;28.45;5.18;;;;;;;;;;4968850;28;20089;-74
2020/12/21 13:21:15;;;;;;;33.20;4.90;;;;;;;;;;4961107;28;20061;-74
2020/12/21 13:23:42;;;;;;;26.90;4.05;;;;;;;;;;4963602;28;20056;-74
2020/12/21 13:26:08;;;;;;;21.50;4.07;;;;;;;;;;4962223;28;20098;-74
2020/12/21 13:28:34;;;;;;;25.37;5.27;;;;;;;;;;4963887;28;20046;-74
2020/12/21 13:31:01;;;;;;;25.75;4.43;;;;;;;;;;4962010;28;20381;-74
2020/12/21 13:33:28;;;;;;;33.38;4.70;;;;;;;;;;4965742;28;20047;-74
2020/12/21 13:35:55;;;;;;;30.90;5.10;;;;;;;;;;4964261;28;20530;-74
2020/12/21 13:38:21;;;;;;;37.20;5.03;;;;;;;;;;4963835;28;20561;-73
2020/12/21 13:40:48;;;;;;;36.53;5.22;;;;;;;;;;4963780;28;20418;-73
2020/12/21 13:43:14;;;;;;;27.67;4.22;;;;;;;;;;4965868;28;20039;-73
2020/12/21 13:45:40;;;;;;;28.27;4.75;;;;;;;;;;4941099;28;20051;-73
2020/12/21 13:48:07;;;;;;;30.88;4.90;;;;;;;;;;4966532;28;20628;-73
2020/12/21 13:50:33;;;;;;;25.42;4.68;;;;;;;;;;4962524;28;20051;-73
2020/12/21 13:52:59;;;;;;;29.92;4.57;;;;;;;;;;4964223;28;20537;-73
2020/12/21 13:55:26;;;;;;;27.10;4.63;;;;;;;;;;4962044;28;20105;-73
2020/12/21 13:57:52;;;;;;;32.95;4.60;;;;;;;;;;4964585;28;20047;-73
2020/12/21 14:00:18;;;;;;;35.33;4.72;;;;;;;;;;4966339;28;20074;-73
2020/12/21 14:02:44;;;;;;;34.85;4.88;;;;;;;;;;4963748;28;20059;-73
2020/12/21 14:05:10;;;;;;;26.98;5.57;;;;;;;;;;4967222;28;20046;-73
2020/12/21 14:07:36;;;;;;;37.17;4.95;;;;;;;;;;4961533;28;20042;-73
2020/12/21 14:10:03;;;;;;;27.33;4.90;;;;;;;;;;4960938;28;20101;-73
2020/12/21 14:12:29;;;;;;;34.65;4.93;;;;;;;;;;4961737;28;20565;-73
2020/12/21 14:14:55;;;;;;;22.23;4.25;;;;;;;;;;4964515;28;20045;-73
2020/12/21 14:17:22;;;;;;;34.17;4.72;;;;;;;;;;4964614;28;20042;-73
2020/12/21 14:19:48;;;;;;;29.23;4.60;;;;;;;;;;4943900;28;20039;-73